Time;durP1;ratioP1;P1;durP2;ratioP2;P2;SDS_P1;SDS_P2;PMS_P1;PMS_P2;Temp;Humidity;BMP_temperature;BMP_pressure;BME280_temperature;BME280_humidity;BME280_pressure;Samples;Min_cycle;Max_cycle;Signal;HPM_P1;HPM_P2
2021/12/18 00:01:50;;;;;;;7.30;5.00;;;;;;;;;;5014965;28;20167;-75
2021/12/18 00:04:16;;;;;;;7.10;5.23;;;;;;;;;;5031306;28;20195;-75
2021/12/18 00:06:42;;;;;;;9.77;5.60;;;;;;;;;;5014777;28;20634;-75
2021/12/18 00:09:08;;;;;;;7.73;5.67;;;;;;;;;;5031340;28;20225;-75
2021/12/18 00:11:34;;;;;;;8.90;6.13;;;;;;;;;;5030870;28;20179;-75
2021/12/18 00:14:00;;;;;;;7.20;5.50;;;;;;;;;;5031194;28;20194;-75
2021/12/18 00:16:27;;;;;;;6.63;5.53;;;;;;;;;;5014675;28;20178;-75
2021/12/18 00:18:55;;;;;;;7.80;5.13;;;;;;;;;;5014567;28;20614;-75
2021/12/18 00:21:22;;;;;;;9.27;5.80;;;;;;;;;;5015056;28;20221;-75
2021/12/18 00:23:48;;;;;;;6.63;5.10;;;;;;;;;;5031204;28;20194;-75
2021/12/18 00:26:14;;;;;;;7.67;5.17;;;;;;;;;;5030811;28;20759;-75
2021/12/18 00:28:40;;;;;;;8.03;5.50;;;;;;;;;;5016153;28;20208;-75
2021/12/18 00:31:06;;;;;;;7.93;5.10;;;;;;;;;;5034467;28;20180;-75
2021/12/18 00:33:32;;;;;;;8.90;5.30;;;;;;;;;;5018393;28;20218;-75
2021/12/18 00:35:58;;;;;;;7.47;4.90;;;;;;;;;;5018467;28;20183;-75
2021/12/18 00:38:29;;;;;;;6.60;5.33;;;;;;;;;;5018171;28;20197;-75
2021/12/18 00:41:27;;;;;;;8.10;5.43;;;;;;;;;;5018396;28;20182;-75
2021/12/18 00:44:03;;;;;;;7.97;5.33;;;;;;;;;;5035288;28;20230;-75
2021/12/18 00:46:31;;;;;;;7.93;5.57;;;;;;;;;;5020534;28;20196;-75
2021/12/18 00:48:58;;;;;;;8.27;5.67;;;;;;;;;;5017875;28;20645;-75
2021/12/18 00:51:24;;;;;;;7.87;5.63;;;;;;;;;;5017731;28;20265;-75
2021/12/18 00:53:50;;;;;;;8.17;5.87;;;;;;;;;;5018015;28;20233;-75
2021/12/18 00:56:16;;;;;;;8.90;6.20;;;;;;;;;;5034541;28;20183;-75
2021/12/18 00:58:43;;;;;;;7.57;5.73;;;;;;;;;;5034190;28;20178;-75
2021/12/18 01:01:10;;;;;;;8.20;5.63;;;;;;;;;;5034259;28;20194;-75
2021/12/18 01:03:38;;;;;;;8.43;5.60;;;;;;;;;;5033932;28;20230;-75
2021/12/18 01:06:04;;;;;;;9.10;5.87;;;;;;;;;;5034199;28;20202;-75
2021/12/18 01:08:30;;;;;;;10.50;6.77;;;;;;;;;;5017653;28;20201;-75
2021/12/18 01:16:24;;;;;;;11.07;6.80;;;;;;;;;;5034415;28;20629;-75
2021/12/18 01:24:19;;;;;;;9.93;6.20;;;;;;;;;;5034156;28;20257;-75
2021/12/18 01:26:45;;;;;;;8.43;5.53;;;;;;;;;;5017183;28;20185;-75
2021/12/18 01:29:11;;;;;;;7.93;5.90;;;;;;;;;;5033840;28;20175;-75
2021/12/18 01:31:37;;;;;;;10.03;6.13;;;;;;;;;;5016933;28;20638;-75
2021/12/18 01:34:03;;;;;;;10.70;6.40;;;;;;;;;;5016967;28;20221;-75
2021/12/18 01:36:30;;;;;;;10.50;6.37;;;;;;;;;;5017229;28;20190;-75
2021/12/18 01:38:56;;;;;;;11.00;7.03;;;;;;;;;;5033680;28;20185;-75
2021/12/18 01:41:22;;;;;;;11.47;7.20;;;;;;;;;;5016128;28;20189;-75
2021/12/18 01:51:14;;;;;;;11.10;6.57;;;;;;;;;;5034477;28;20201;-75
2021/12/18 01:54:40;;;;;;;11.07;6.60;;;;;;;;;;5034568;28;20563;-75
2021/12/18 02:00:31;;;;;;;12.17;6.80;;;;;;;;;;5034104;28;20179;-75
2021/12/18 02:02:58;;;;;;;12.53;7.60;;;;;;;;;;5033242;28;20287;-75
2021/12/18 02:05:24;;;;;;;12.60;6.97;;;;;;;;;;5016888;28;20226;-75
2021/12/18 02:07:50;;;;;;;11.20;6.73;;;;;;;;;;5033057;28;20212;-75
2021/12/18 02:10:19;;;;;;;12.47;7.43;;;;;;;;;;5032695;28;20170;-75
2021/12/18 02:12:55;;;;;;;12.27;7.70;;;;;;;;;;5016956;28;20633;-75
2021/12/18 02:20:58;;;;;;;12.33;7.13;;;;;;;;;;5033845;28;20173;-75
2021/12/18 02:23:25;;;;;;;12.40;7.17;;;;;;;;;;5016315;28;20234;-75
2021/12/18 02:25:51;;;;;;;13.37;7.53;;;;;;;;;;5032700;28;20206;-75
2021/12/18 02:28:22;;;;;;;11.93;7.87;;;;;;;;;;5032883;28;20186;-75
2021/12/18 02:30:49;;;;;;;11.53;6.80;;;;;;;;;;5032497;28;20201;-75
2021/12/18 02:33:16;;;;;;;10.73;6.73;;;;;;;;;;5015765;28;20218;-75
2021/12/18 02:35:47;;;;;;;11.77;7.17;;;;;;;;;;5032341;28;20170;-75
2021/12/18 02:38:18;;;;;;;12.27;6.80;;;;;;;;;;5016828;28;20174;-74
2021/12/18 02:43:16;;;;;;;11.97;7.30;;;;;;;;;;5033339;28;20206;-75
2021/12/18 02:45:42;;;;;;;12.97;7.30;;;;;;;;;;5015892;28;20259;-75
2021/12/18 02:48:08;;;;;;;11.73;7.17;;;;;;;;;;5016094;28;20235;-75
2021/12/18 02:50:39;;;;;;;14.50;8.07;;;;;;;;;;5031782;28;20182;-75
2021/12/18 02:53:07;;;;;;;12.73;7.27;;;;;;;;;;5015982;28;20219;-75
2021/12/18 02:55:33;;;;;;;15.63;7.07;;;;;;;;;;5032174;28;20206;-74
2021/12/18 03:00:55;;;;;;;12.30;6.93;;;;;;;;;;5033233;28;20304;-75
2021/12/18 03:03:25;;;;;;;11.67;6.63;;;;;;;;;;5015388;28;20206;-75
2021/12/18 03:06:05;;;;;;;11.37;6.50;;;;;;;;;;5016196;28;20213;-74
2021/12/18 03:23:07;;;;;;;10.67;6.07;;;;;;;;;;5010664;28;20199;-75
2021/12/18 03:25:35;;;;;;;11.97;5.83;;;;;;;;;;4994311;28;20245;-75
2021/12/18 03:28:05;;;;;;;12.43;6.63;;;;;;;;;;5014785;28;20265;-75
2021/12/18 03:30:32;;;;;;;11.77;6.07;;;;;;;;;;5015703;28;20629;-75
2021/12/18 03:32:58;;;;;;;12.43;6.97;;;;;;;;;;5031330;28;20216;-75
2021/12/18 03:35:25;;;;;;;12.43;6.27;;;;;;;;;;5031714;28;20217;-75
2021/12/18 03:37:51;;;;;;;10.27;6.00;;;;;;;;;;5031604;28;20286;-75
2021/12/18 03:40:18;;;;;;;10.67;6.30;;;;;;;;;;5015264;28;20620;-75
2021/12/18 03:42:45;;;;;;;11.67;6.33;;;;;;;;;;5014866;28;20277;-75
2021/12/18 03:45:12;;;;;;;11.90;6.27;;;;;;;;;;5031513;28;20663;-75
2021/12/18 03:47:38;;;;;;;13.13;7.07;;;;;;;;;;5031468;28;20174;-75
2021/12/18 03:50:04;;;;;;;13.47;6.80;;;;;;;;;;5014918;28;20185;-75
2021/12/18 03:52:30;;;;;;;12.97;6.60;;;;;;;;;;5031131;28;20177;-75
2021/12/18 03:54:56;;;;;;;11.57;6.80;;;;;;;;;;5031389;28;20185;-75
2021/12/18 04:00:26;;;;;;;14.43;7.57;;;;;;;;;;5032229;28;20166;-75
2021/12/18 04:02:52;;;;;;;13.53;7.20;;;;;;;;;;5031494;28;20190;-75
2021/12/18 04:05:19;;;;;;;13.57;7.23;;;;;;;;;;5035401;28;20211;-75
2021/12/18 04:07:49;;;;;;;11.17;6.00;;;;;;;;;;5035033;28;20187;-75
2021/12/18 04:10:15;;;;;;;12.77;6.50;;;;;;;;;;5019518;28;20243;-75
2021/12/18 04:12:42;;;;;;;12.47;6.57;;;;;;;;;;5035130;28;20232;-75
2021/12/18 04:15:08;;;;;;;11.60;6.20;;;;;;;;;;5018873;28;20204;-75
2021/12/18 04:17:34;;;;;;;11.73;6.23;;;;;;;;;;5035171;28;20178;-75
2021/12/18 04:20:00;;;;;;;12.93;6.70;;;;;;;;;;5018780;28;20182;-75
2021/12/18 04:22:26;;;;;;;13.53;7.13;;;;;;;;;;5034594;28;20194;-75
2021/12/18 04:24:52;;;;;;;12.73;6.83;;;;;;;;;;5034788;28;20212;-75
2021/12/18 04:27:18;;;;;;;13.60;6.60;;;;;;;;;;5018721;28;20178;-75
2021/12/18 04:29:44;;;;;;;14.33;6.80;;;;;;;;;;5018585;28;20640;-75
2021/12/18 04:32:10;;;;;;;13.47;6.57;;;;;;;;;;5017990;28;20209;-75
2021/12/18 04:34:36;;;;;;;12.07;6.63;;;;;;;;;;5018256;28;20308;-75
2021/12/18 04:37:02;;;;;;;13.33;6.93;;;;;;;;;;5018364;28;20174;-75
2021/12/18 04:39:28;;;;;;;13.10;6.67;;;;;;;;;;5034758;28;20170;-75
2021/12/18 04:41:57;;;;;;;13.00;6.73;;;;;;;;;;5034487;28;20174;-76
2021/12/18 04:44:24;;;;;;;15.67;7.77;;;;;;;;;;5018608;28;20195;-75
2021/12/18 04:46:50;;;;;;;13.47;6.97;;;;;;;;;;5034738;28;20600;-75
2021/12/18 04:49:16;;;;;;;15.50;6.73;;;;;;;;;;5034638;28;20182;-75
2021/12/18 04:51:42;;;;;;;15.63;7.13;;;;;;;;;;5018003;28;20190;-75
2021/12/18 04:54:08;;;;;;;11.80;6.43;;;;;;;;;;5034415;28;20198;-75
2021/12/18 04:56:34;;;;;;;9.07;5.80;;;;;;;;;;5018108;28;20186;-75
2021/12/18 04:59:29;;;;;;;10.40;5.60;;;;;;;;;;5034302;28;20614;-75
2021/12/18 05:01:56;;;;;;;9.23;4.67;;;;;;;;;;5034226;28;20195;-75
2021/12/18 05:04:22;;;;;;;9.13;4.37;;;;;;;;;;5017708;28;20213;-75
2021/12/18 05:06:51;;;;;;;8.17;4.60;;;;;;;;;;5034293;28;20625;-75
2021/12/18 05:09:17;;;;;;;10.00;5.07;;;;;;;;;;5034143;28;20181;-75
2021/12/18 05:11:43;;;;;;;9.97;5.50;;;;;;;;;;5017649;28;20198;-74
2021/12/18 05:14:10;;;;;;;12.00;5.80;;;;;;;;;;5017212;28;20202;-75
2021/12/18 05:16:36;;;;;;;13.53;6.07;;;;;;;;;;5016812;28;20184;-75
2021/12/18 05:19:03;;;;;;;11.60;6.03;;;;;;;;;;5033993;28;20637;-75
2021/12/18 05:21:29;;;;;;;11.57;5.87;;;;;;;;;;5033818;28;20175;-75
2021/12/18 05:23:55;;;;;;;13.67;6.40;;;;;;;;;;5033570;28;20653;-75
2021/12/18 05:26:21;;;;;;;15.70;6.73;;;;;;;;;;5033762;28;20616;-74
2021/12/18 05:28:47;;;;;;;14.33;6.93;;;;;;;;;;5033604;28;20618;-75
2021/12/18 05:31:16;;;;;;;14.07;7.37;;;;;;;;;;5033676;28;20181;-75
2021/12/18 05:33:44;;;;;;;16.07;7.83;;;;;;;;;;5033675;28;20673;-75
2021/12/18 05:36:30;;;;;;;17.50;7.60;;;;;;;;;;5033649;28;20601;-75
2021/12/18 05:38:56;;;;;;;14.73;7.23;;;;;;;;;;5020103;28;20270;-75
2021/12/18 05:41:22;;;;;;;14.70;7.47;;;;;;;;;;5033444;28;20179;-75
2021/12/18 05:43:48;;;;;;;18.97;7.70;;;;;;;;;;5033303;28;20244;-75
2021/12/18 05:46:14;;;;;;;12.47;6.37;;;;;;;;;;5017175;28;20615;-75
2021/12/18 05:48:40;;;;;;;14.43;6.50;;;;;;;;;;5017133;28;20691;-79
2021/12/18 05:51:06;;;;;;;13.20;6.40;;;;;;;;;;5016651;28;20188;-75
2021/12/18 05:53:33;;;;;;;12.03;6.10;;;;;;;;;;5016669;28;20195;-75
2021/12/18 05:55:59;;;;;;;12.03;6.80;;;;;;;;;;5016988;28;20265;-75
2021/12/18 06:01:55;;;;;;;11.47;5.73;;;;;;;;;;5034089;28;20157;-76
2021/12/18 06:04:21;;;;;;;11.40;6.00;;;;;;;;;;5033129;28;20199;-75
2021/12/18 06:06:47;;;;;;;13.10;6.90;;;;;;;;;;5032834;28;20571;-75
2021/12/18 06:09:13;;;;;;;12.63;6.23;;;;;;;;;;5032993;28;20178;-78
2021/12/18 06:11:41;;;;;;;11.40;6.20;;;;;;;;;;5032626;28;20182;-78
2021/12/18 06:14:07;;;;;;;13.10;6.27;;;;;;;;;;5032855;28;20256;-78
2021/12/18 06:16:33;;;;;;;13.17;6.50;;;;;;;;;;5016776;28;20221;-78
2021/12/18 06:18:59;;;;;;;11.10;5.77;;;;;;;;;;5032659;28;20213;-78
2021/12/18 06:21:25;;;;;;;11.33;5.93;;;;;;;;;;5032766;28;20272;-79
2021/12/18 06:23:52;;;;;;;11.80;6.10;;;;;;;;;;5016512;28;20209;-78
2021/12/18 06:26:19;;;;;;;10.57;5.77;;;;;;;;;;5031968;28;20198;-78
2021/12/18 06:28:45;;;;;;;11.33;5.87;;;;;;;;;;5016522;28;20242;-78
2021/12/18 06:31:11;;;;;;;11.43;5.93;;;;;;;;;;5017108;28;20178;-80
2021/12/18 06:33:37;;;;;;;11.17;5.90;;;;;;;;;;5033474;28;20206;-80
2021/12/18 06:36:04;;;;;;;11.67;6.20;;;;;;;;;;5033601;28;20170;-78
2021/12/18 06:38:29;;;;;;;13.07;6.27;;;;;;;;;;5016732;28;20278;-80
2021/12/18 06:40:55;;;;;;;13.43;7.20;;;;;;;;;;5032677;28;20205;-79
2021/12/18 06:43:22;;;;;;;13.57;7.17;;;;;;;;;;5032565;28;20237;-78
2021/12/18 06:45:48;;;;;;;11.40;5.83;;;;;;;;;;5015888;28;20680;-79
2021/12/18 06:48:14;;;;;;;8.40;5.30;;;;;;;;;;5016018;28;20730;-78
2021/12/18 06:50:40;;;;;;;9.60;5.40;;;;;;;;;;5031796;28;20212;-78
2021/12/18 06:53:06;;;;;;;8.90;5.13;;;;;;;;;;5015566;28;20301;-78
2021/12/18 06:55:32;;;;;;;9.47;5.00;;;;;;;;;;5032194;28;20303;-76
2021/12/18 06:58:14;;;;;;;9.77;5.53;;;;;;;;;;5015581;28;20794;-78
2021/12/18 07:00:40;;;;;;;8.67;5.30;;;;;;;;;;5032444;28;20188;-77
2021/12/18 07:03:06;;;;;;;10.50;6.00;;;;;;;;;;5015360;28;20819;-77
2021/12/18 07:05:32;;;;;;;10.87;5.60;;;;;;;;;;5032025;28;20201;-77
2021/12/18 07:07:58;;;;;;;10.13;5.90;;;;;;;;;;5015429;28;20650;-76
2021/12/18 07:10:24;;;;;;;9.63;6.10;;;;;;;;;;5031873;28;20181;-77
2021/12/18 07:12:50;;;;;;;11.37;6.57;;;;;;;;;;5015462;28;20781;-77
2021/12/18 07:15:16;;;;;;;10.50;5.30;;;;;;;;;;5031783;28;20193;-77
2021/12/18 07:17:42;;;;;;;9.97;5.47;;;;;;;;;;5031978;28;20276;-79
2021/12/18 07:20:09;;;;;;;12.27;6.40;;;;;;;;;;5032333;28;20179;-80
2021/12/18 07:22:35;;;;;;;12.07;5.90;;;;;;;;;;5015751;28;20698;-80
2021/12/18 07:25:02;;;;;;;12.13;6.63;;;;;;;;;;5032317;28;20202;-80
2021/12/18 07:27:28;;;;;;;12.57;7.37;;;;;;;;;;5032534;28;20175;-80
2021/12/18 07:29:54;;;;;;;13.00;6.97;;;;;;;;;;5015961;28;20269;-80
2021/12/18 07:32:20;;;;;;;13.47;7.00;;;;;;;;;;5015787;28;20718;-80
2021/12/18 07:34:46;;;;;;;10.33;6.20;;;;;;;;;;5031704;28;20209;-80
2021/12/18 07:37:12;;;;;;;11.50;6.10;;;;;;;;;;5015978;28;20236;-80
2021/12/18 07:39:38;;;;;;;13.23;7.40;;;;;;;;;;5015098;28;20180;-80
2021/12/18 07:42:04;;;;;;;12.77;6.37;;;;;;;;;;5014896;28;20224;-80
2021/12/18 07:44:30;;;;;;;11.10;6.37;;;;;;;;;;5015273;28;20202;-80
2021/12/18 07:46:56;;;;;;;11.03;6.83;;;;;;;;;;5031773;28;20218;-80
2021/12/18 07:49:22;;;;;;;9.53;6.30;;;;;;;;;;5015276;28;20183;-80
2021/12/18 07:51:48;;;;;;;11.57;6.57;;;;;;;;;;5014848;28;20193;-80
2021/12/18 07:54:14;;;;;;;11.50;6.30;;;;;;;;;;5015405;28;20210;-80
2021/12/18 07:56:40;;;;;;;11.43;6.03;;;;;;;;;;5015181;28;20179;-80
2021/12/18 07:59:06;;;;;;;10.57;6.03;;;;;;;;;;5031348;28;20204;-79
2021/12/18 08:01:32;;;;;;;10.43;6.13;;;;;;;;;;5014999;28;20174;-81
2021/12/18 08:03:58;;;;;;;10.20;5.77;;;;;;;;;;5015396;28;20232;-81
2021/12/18 08:06:24;;;;;;;11.70;6.67;;;;;;;;;;5031997;28;20198;-81
2021/12/18 08:08:50;;;;;;;10.57;6.50;;;;;;;;;;5015444;28;20183;-81
2021/12/18 08:11:16;;;;;;;10.73;5.93;;;;;;;;;;5031251;28;20270;-81
2021/12/18 08:13:42;;;;;;;11.47;6.07;;;;;;;;;;5031781;28;20198;-81
2021/12/18 08:16:08;;;;;;;10.93;6.13;;;;;;;;;;5031270;28;20220;-80
2021/12/18 08:18:35;;;;;;;10.90;6.37;;;;;;;;;;5031148;28;20185;-81
2021/12/18 08:21:01;;;;;;;12.60;6.43;;;;;;;;;;5031009;28;20182;-80
2021/12/18 08:23:27;;;;;;;11.20;6.67;;;;;;;;;;5014542;28;20699;-80
2021/12/18 08:25:53;;;;;;;13.27;7.50;;;;;;;;;;5015114;28;20210;-81
2021/12/18 08:28:19;;;;;;;12.90;6.87;;;;;;;;;;5015017;28;20227;-80
2021/12/18 08:30:45;;;;;;;11.43;6.60;;;;;;;;;;5031055;28;20220;-80
2021/12/18 08:33:11;;;;;;;11.83;6.40;;;;;;;;;;5014899;28;20289;-81
2021/12/18 08:35:38;;;;;;;12.43;6.60;;;;;;;;;;5031455;28;20186;-81
2021/12/18 08:38:05;;;;;;;10.30;5.67;;;;;;;;;;5031361;28;20179;-81
2021/12/18 08:40:31;;;;;;;9.27;5.53;;;;;;;;;;5031368;28;20178;-81
2021/12/18 08:42:57;;;;;;;10.13;5.50;;;;;;;;;;5031286;28;20198;-81
2021/12/18 08:45:23;;;;;;;10.37;5.60;;;;;;;;;;5014848;28;20206;-81
2021/12/18 08:47:49;;;;;;;10.60;5.77;;;;;;;;;;5015134;28;20184;-81
2021/12/18 08:50:17;;;;;;;9.93;5.47;;;;;;;;;;5033383;28;20181;-81
2021/12/18 08:52:44;;;;;;;8.50;5.07;;;;;;;;;;5018586;28;20555;-81
2021/12/18 08:55:10;;;;;;;8.33;5.10;;;;;;;;;;5035333;28;20171;-81
2021/12/18 08:57:36;;;;;;;7.97;4.73;;;;;;;;;;5034631;28;20232;-81
2021/12/18 09:00:04;;;;;;;8.70;4.80;;;;;;;;;;5034756;28;20584;-81
2021/12/18 09:02:30;;;;;;;8.43;5.03;;;;;;;;;;5018191;28;20653;-81
2021/12/18 09:04:56;;;;;;;8.30;4.90;;;;;;;;;;5017991;28;20209;-81
2021/12/18 09:07:23;;;;;;;8.80;5.10;;;;;;;;;;5018321;28;20186;-81
2021/12/18 09:09:49;;;;;;;9.60;4.90;;;;;;;;;;5018106;28;20185;-81
2021/12/18 09:12:15;;;;;;;7.23;4.57;;;;;;;;;;5017783;28;20174;-81
2021/12/18 09:14:41;;;;;;;8.07;4.60;;;;;;;;;;5017979;28;20289;-80
2021/12/18 09:17:07;;;;;;;8.53;4.83;;;;;;;;;;5034263;28;20182;-81
2021/12/18 09:19:33;;;;;;;8.37;4.90;;;;;;;;;;5017483;28;20175;-81
2021/12/18 09:21:59;;;;;;;9.30;4.57;;;;;;;;;;5017146;28;20191;-80
2021/12/18 09:24:25;;;;;;;9.37;4.63;;;;;;;;;;5017196;28;20628;-81
2021/12/18 09:26:52;;;;;;;9.37;5.10;;;;;;;;;;5033855;28;20212;-81
2021/12/18 09:29:18;;;;;;;8.63;4.87;;;;;;;;;;5034177;28;20174;-81
2021/12/18 09:31:44;;;;;;;7.73;4.63;;;;;;;;;;5017584;28;20178;-80
2021/12/18 09:34:10;;;;;;;10.47;6.17;;;;;;;;;;5033525;28;20343;-80
2021/12/18 09:36:36;;;;;;;10.43;6.13;;;;;;;;;;5017385;28;20732;-80
2021/12/18 09:39:03;;;;;;;9.30;5.00;;;;;;;;;;5017825;28;20193;-81
2021/12/18 09:41:29;;;;;;;7.93;4.70;;;;;;;;;;5033841;28;20235;-80
2021/12/18 09:43:55;;;;;;;9.73;5.83;;;;;;;;;;5033620;28;20201;-80
2021/12/18 09:46:21;;;;;;;10.20;6.13;;;;;;;;;;5016975;28;20210;-80
2021/12/18 09:48:47;;;;;;;8.07;4.90;;;;;;;;;;5017243;28;20213;-80
2021/12/18 09:51:23;;;;;;;9.50;5.60;;;;;;;;;;5033423;28;20222;-80
2021/12/18 09:53:50;;;;;;;9.27;4.70;;;;;;;;;;5033778;28;20190;-80
2021/12/18 09:56:16;;;;;;;7.83;4.60;;;;;;;;;;5033516;28;20186;-80
2021/12/18 09:58:42;;;;;;;7.57;4.50;;;;;;;;;;5017246;28;20192;-80
2021/12/18 10:01:08;;;;;;;6.07;4.27;;;;;;;;;;5032481;28;20175;-80
2021/12/18 10:03:54;;;;;;;6.87;3.90;;;;;;;;;;5017432;28;20207;-80
2021/12/18 10:06:33;;;;;;;7.17;4.13;;;;;;;;;;5033241;28;20209;-80
2021/12/18 10:09:00;;;;;;;9.23;4.60;;;;;;;;;;5033768;28;20179;-80
2021/12/18 10:11:26;;;;;;;8.13;4.03;;;;;;;;;;5016655;28;20324;-80
2021/12/18 10:13:54;;;;;;;6.03;3.83;;;;;;;;;;5033283;28;20245;-80
2021/12/18 10:16:21;;;;;;;6.70;4.10;;;;;;;;;;5033502;28;20175;-80
2021/12/18 10:18:47;;;;;;;6.40;3.93;;;;;;;;;;5017281;28;20189;-80
2021/12/18 10:21:15;;;;;;;7.13;3.77;;;;;;;;;;5015932;28;20188;-80
2021/12/18 10:23:45;;;;;;;8.50;4.53;;;;;;;;;;5016416;28;20230;-80
2021/12/18 10:26:30;;;;;;;7.10;4.57;;;;;;;;;;5032752;28;20204;-80
2021/12/18 10:28:56;;;;;;;9.20;5.53;;;;;;;;;;5032854;28;20178;-80
2021/12/18 10:31:39;;;;;;;9.93;6.10;;;;;;;;;;5016169;28;20188;-80
2021/12/18 10:34:22;;;;;;;12.07;5.77;;;;;;;;;;5015947;28;20227;-79
2021/12/18 10:37:06;;;;;;;9.53;5.50;;;;;;;;;;5033199;28;20642;-80
2021/12/18 10:39:32;;;;;;;9.37;5.33;;;;;;;;;;5033128;28;20177;-80
2021/12/18 10:42:14;;;;;;;7.77;4.50;;;;;;;;;;5016568;28;20183;-80
2021/12/18 10:44:54;;;;;;;8.37;4.80;;;;;;;;;;5032556;28;20202;-79
2021/12/18 10:47:20;;;;;;;8.23;4.70;;;;;;;;;;5033230;28;20217;-79
2021/12/18 10:49:46;;;;;;;6.10;4.03;;;;;;;;;;5032757;28;20180;-80
2021/12/18 10:52:12;;;;;;;7.33;4.20;;;;;;;;;;5032837;28;20232;-80
2021/12/18 10:54:38;;;;;;;6.57;4.30;;;;;;;;;;5032901;28;20544;-80
2021/12/18 10:57:04;;;;;;;8.43;4.50;;;;;;;;;;5033186;28;20182;-80
2021/12/18 10:59:34;;;;;;;7.53;4.70;;;;;;;;;;5032673;28;20182;-80
2021/12/18 11:02:01;;;;;;;9.50;4.73;;;;;;;;;;5032458;28;20552;-80
2021/12/18 11:04:29;;;;;;;6.90;4.40;;;;;;;;;;5032429;28;20225;-78
2021/12/18 11:06:55;;;;;;;7.70;4.30;;;;;;;;;;5017112;28;20210;-79
2021/12/18 11:09:30;;;;;;;7.23;4.50;;;;;;;;;;5032946;28;20274;-79
2021/12/18 11:14:37;;;;;;;8.13;4.60;;;;;;;;;;5032574;28;20201;-78
2021/12/18 11:17:05;;;;;;;8.20;4.97;;;;;;;;;;5032030;28;20187;-79
2021/12/18 11:19:32;;;;;;;6.83;4.23;;;;;;;;;;5015845;28;20218;-78
2021/12/18 11:22:03;;;;;;;6.83;4.00;;;;;;;;;;5015590;28;20243;-77
2021/12/18 11:24:35;;;;;;;6.13;3.27;;;;;;;;;;5031901;28;20686;-78
2021/12/18 11:27:08;;;;;;;6.13;3.23;;;;;;;;;;5016040;28;20338;-79
2021/12/18 11:29:44;;;;;;;4.73;3.70;;;;;;;;;;5016369;28;20216;-79
2021/12/18 11:32:18;;;;;;;5.60;3.67;;;;;;;;;;5015933;28;20177;-79
2021/12/18 11:34:46;;;;;;;5.57;4.07;;;;;;;;;;5031708;28;20217;-81
2021/12/18 11:37:13;;;;;;;6.97;4.40;;;;;;;;;;5031153;28;20169;-81
2021/12/18 11:39:40;;;;;;;6.80;4.33;;;;;;;;;;5031306;28;20614;-81
2021/12/18 11:42:06;;;;;;;7.73;4.50;;;;;;;;;;5014952;28;20545;-88
2021/12/18 11:44:43;;;;;;;7.37;4.30;;;;;;;;;;5031653;28;20324;-81
2021/12/18 11:47:27;;;;;;;7.23;4.30;;;;;;;;;;5015449;28;20182;-80
2021/12/18 11:50:12;;;;;;;6.10;4.00;;;;;;;;;;5031448;28;20216;-81
2021/12/18 11:52:57;;;;;;;6.73;4.30;;;;;;;;;;5031552;28;20183;-81
2021/12/18 11:55:24;;;;;;;6.40;4.17;;;;;;;;;;5031592;28;20186;-81
2021/12/18 11:57:51;;;;;;;7.67;3.90;;;;;;;;;;5031471;28;20703;-80
2021/12/18 12:00:23;;;;;;;6.10;3.90;;;;;;;;;;5031612;28;20202;-80
2021/12/18 12:02:56;;;;;;;7.33;3.97;;;;;;;;;;5031213;28;20177;-80
2021/12/18 12:05:34;;;;;;;6.13;4.00;;;;;;;;;;5031518;28;20211;-80
2021/12/18 12:08:19;;;;;;;6.57;4.20;;;;;;;;;;5014852;28;20182;-81
2021/12/18 12:11:03;;;;;;;6.63;4.33;;;;;;;;;;5031456;28;20604;-81
2021/12/18 12:13:48;;;;;;;6.90;4.10;;;;;;;;;;5031532;28;20281;-80
2021/12/18 12:16:14;;;;;;;5.50;3.80;;;;;;;;;;5031529;28;20265;-81
2021/12/18 12:18:59;;;;;;;6.83;4.30;;;;;;;;;;5015279;28;20210;-81
2021/12/18 12:21:41;;;;;;;7.03;4.00;;;;;;;;;;5031463;28;20181;-81
2021/12/18 12:24:08;;;;;;;6.17;3.83;;;;;;;;;;5031630;28;20211;-81
2021/12/18 12:26:34;;;;;;;6.33;4.27;;;;;;;;;;5018873;28;20211;-81
2021/12/18 12:29:00;;;;;;;5.47;3.90;;;;;;;;;;5018946;28;20191;-80
2021/12/18 12:31:27;;;;;;;6.77;4.40;;;;;;;;;;5018481;28;20717;-81
2021/12/18 12:34:13;;;;;;;7.00;3.80;;;;;;;;;;5034923;28;20221;-80
2021/12/18 12:36:45;;;;;;;5.13;3.60;;;;;;;;;;5034843;28;20182;-80
2021/12/18 12:39:11;;;;;;;4.77;3.33;;;;;;;;;;5035021;28;20171;-81
2021/12/18 12:41:47;;;;;;;4.87;3.10;;;;;;;;;;5018557;28;20182;-81
2021/12/18 12:44:25;;;;;;;15.13;8.60;;;;;;;;;;5034564;28;20202;-80
2021/12/18 12:47:10;;;;;;;12.43;9.13;;;;;;;;;;5034878;28;20210;-81
2021/12/18 12:49:36;;;;;;;7.50;4.60;;;;;;;;;;5035031;28;20178;-81
2021/12/18 12:52:04;;;;;;;4.47;3.03;;;;;;;;;;5018271;28;20206;-81
2021/12/18 12:54:49;;;;;;;4.60;3.10;;;;;;;;;;5018331;28;20204;-81
2021/12/18 12:57:25;;;;;;;5.23;3.70;;;;;;;;;;5034420;28;20190;-81
2021/12/18 13:00:00;;;;;;;5.70;3.53;;;;;;;;;;5034670;28;20179;-81
2021/12/18 13:02:27;;;;;;;4.50;3.37;;;;;;;;;;5034374;28;20181;-81
2021/12/18 13:05:00;;;;;;;5.43;3.70;;;;;;;;;;5034098;28;20200;-81
2021/12/18 13:07:26;;;;;;;5.20;3.70;;;;;;;;;;5034521;28;20275;-81
2021/12/18 13:09:52;;;;;;;10.10;4.00;;;;;;;;;;5018084;28;20206;-80
2021/12/18 13:12:18;;;;;;;6.20;3.77;;;;;;;;;;5018023;28;20545;-81
2021/12/18 13:14:46;;;;;;;6.33;3.93;;;;;;;;;;5018026;28;20200;-80
2021/12/18 13:17:18;;;;;;;6.73;4.13;;;;;;;;;;5034660;28;20209;-80
2021/12/18 13:19:58;;;;;;;6.63;4.60;;;;;;;;;;5034407;28;20184;-80
2021/12/18 13:22:29;;;;;;;6.63;3.90;;;;;;;;;;5034407;28;20171;-80
2021/12/18 13:25:03;;;;;;;7.87;4.27;;;;;;;;;;5034237;28;20194;-81
2021/12/18 13:27:29;;;;;;;5.90;3.93;;;;;;;;;;5034266;28;20186;-80
2021/12/18 13:30:11;;;;;;;8.03;5.17;;;;;;;;;;5018103;28;20175;-79
2021/12/18 13:32:37;;;;;;;4.60;3.07;;;;;;;;;;5033995;28;20185;-80
2021/12/18 13:35:12;;;;;;;5.73;4.20;;;;;;;;;;5017486;28;20313;-80
2021/12/18 13:37:38;;;;;;;6.07;4.60;;;;;;;;;;5033538;28;20163;-80
2021/12/18 13:40:13;;;;;;;4.83;3.40;;;;;;;;;;5017500;28;20187;-80
2021/12/18 13:42:39;;;;;;;7.23;3.63;;;;;;;;;;5033406;28;20167;-81
2021/12/18 13:45:05;;;;;;;5.93;3.40;;;;;;;;;;5017265;28;20620;-80
2021/12/18 13:47:33;;;;;;;4.87;3.60;;;;;;;;;;5033786;28;20233;-80
2021/12/18 13:50:19;;;;;;;5.17;3.37;;;;;;;;;;5034038;28;20184;-80
2021/12/18 13:52:45;;;;;;;7.50;5.00;;;;;;;;;;5020349;28;20548;-82
2021/12/18 13:55:27;;;;;;;7.43;4.30;;;;;;;;;;5034241;28;20179;-80
2021/12/18 13:58:02;;;;;;;5.10;3.50;;;;;;;;;;5033963;28;20177;-81
2021/12/18 14:00:28;;;;;;;5.93;3.30;;;;;;;;;;5033698;28;20187;-81
2021/12/18 14:02:54;;;;;;;4.57;3.27;;;;;;;;;;5033654;28;20548;-81
2021/12/18 14:05:20;;;;;;;4.70;3.00;;;;;;;;;;5033488;28;20198;-81
2021/12/18 14:07:47;;;;;;;6.23;4.67;;;;;;;;;;5033436;28;20673;-81
2021/12/18 14:10:13;;;;;;;4.73;3.43;;;;;;;;;;5017036;28;20174;-82
2021/12/18 14:12:39;;;;;;;4.83;2.97;;;;;;;;;;5016796;28;20271;-81
2021/12/18 14:15:05;;;;;;;5.67;3.47;;;;;;;;;;5017077;28;20176;-81
2021/12/18 14:17:32;;;;;;;5.27;3.57;;;;;;;;;;5016649;28;20180;-81
2021/12/18 14:23:16;;;;;;;6.57;3.73;;;;;;;;;;5033594;28;20206;-82
2021/12/18 14:25:42;;;;;;;7.87;3.97;;;;;;;;;;5033846;28;20676;-82
2021/12/18 14:28:18;;;;;;;6.00;4.40;;;;;;;;;;5013012;28;20240;-81
2021/12/18 14:30:45;;;;;;;5.90;3.90;;;;;;;;;;5029543;28;20168;-82
2021/12/18 14:33:14;;;;;;;5.87;4.47;;;;;;;;;;5029381;28;20690;-82
2021/12/18 14:35:53;;;;;;;5.83;4.20;;;;;;;;;;5021691;28;20195;-81
2021/12/18 14:38:21;;;;;;;8.73;4.30;;;;;;;;;;5012937;28;20230;-82
2021/12/18 14:40:57;;;;;;;7.97;4.50;;;;;;;;;;5013199;28;20217;-82
2021/12/18 14:43:25;;;;;;;5.87;4.07;;;;;;;;;;5030045;28;20708;-81
2021/12/18 14:45:51;;;;;;;5.93;3.90;;;;;;;;;;5030664;28;20231;-83
2021/12/18 14:48:27;;;;;;;4.60;3.60;;;;;;;;;;5038087;28;20212;-82
2021/12/18 14:50:53;;;;;;;5.23;3.20;;;;;;;;;;5031408;28;20613;-82
2021/12/18 14:53:21;;;;;;;5.30;3.43;;;;;;;;;;5032690;28;20690;-82
2021/12/18 14:55:51;;;;;;;5.57;4.00;;;;;;;;;;5048769;28;20284;-82
2021/12/18 14:58:28;;;;;;;4.93;3.60;;;;;;;;;;5032200;28;20651;-81
2021/12/18 15:00:54;;;;;;;4.57;3.90;;;;;;;;;;5031705;28;20193;-81
2021/12/18 15:03:31;;;;;;;5.67;3.50;;;;;;;;;;5048847;28;20211;-80
2021/12/18 15:06:00;;;;;;;5.43;3.90;;;;;;;;;;5032874;28;20210;-81
2021/12/18 15:08:37;;;;;;;6.23;4.30;;;;;;;;;;5033445;28;20233;-80
2021/12/18 15:11:14;;;;;;;8.73;6.10;;;;;;;;;;5019681;28;20192;-81
2021/12/18 15:13:45;;;;;;;8.80;5.93;;;;;;;;;;5017448;28;20194;-80
2021/12/18 15:16:32;;;;;;;9.37;5.83;;;;;;;;;;5031110;28;20294;-79
2021/12/18 15:18:59;;;;;;;10.33;6.50;;;;;;;;;;5028529;28;20185;-78
2021/12/18 15:21:25;;;;;;;9.23;6.30;;;;;;;;;;5028246;28;20651;-83
2021/12/18 15:23:51;;;;;;;9.30;5.77;;;;;;;;;;5028546;28;20212;-82
2021/12/18 15:26:18;;;;;;;8.67;5.83;;;;;;;;;;5028443;28;20222;-82
2021/12/18 15:28:44;;;;;;;9.17;5.87;;;;;;;;;;5028284;28;20555;-82
2021/12/18 15:31:10;;;;;;;7.30;5.20;;;;;;;;;;5028286;28;20319;-82
2021/12/18 15:33:36;;;;;;;7.03;4.60;;;;;;;;;;5028179;28;20213;-81
2021/12/18 15:36:03;;;;;;;7.30;4.93;;;;;;;;;;5028493;28;20188;-82
2021/12/18 15:38:29;;;;;;;6.87;4.50;;;;;;;;;;5028419;28;20193;-81
2021/12/18 15:40:56;;;;;;;8.20;4.87;;;;;;;;;;5027839;28;20184;-82
2021/12/18 15:43:22;;;;;;;7.87;4.30;;;;;;;;;;5028349;28;20220;-82
2021/12/18 15:45:48;;;;;;;8.47;5.07;;;;;;;;;;5028289;28;20195;-82
2021/12/18 15:48:15;;;;;;;7.73;5.07;;;;;;;;;;5028242;28;20181;-81